Detalii statie SILVAUR IMPEX [00001CFE]

Toti senzorii

Date Temperatura solului [C]Precipitatii [mm]Voltaj baterie [mV]Leaf Wetness [Min]HC Air temperature [C]HC Relative humidity [%]Punctul de roua [C]
medieminmaxsumaultimatimpmedieminmaxmediemediemin
2017-08-14 20:00:00 0 6914 23.76 22.96 24.37 0 0 0
2017-08-14 21:00:00 0 6854 21.53 20.08 22.88 0 0 0
2017-08-14 22:00:00 0 6844 20.11 19.63 20.48 0 0 0
2017-08-14 23:00:00 0 6826 19.5 19.13 20.16 0 0 0
2017-08-15 00:00:00 0 6834 18.81 18.12 19.25 0 0 0
2017-08-15 01:00:00 0 6816 17.39 16.81 18.06 0 0 0
2017-08-15 02:00:00 0 6806 16.18 15.64 16.66 0 0 0
2017-08-15 03:00:00 0 6796 15.31 14.99 15.5 0 0 0
2017-08-15 04:00:00 0 6786 15.15 14.82 15.42 0 0 0
2017-08-15 05:00:00 0 6786 15.52 15.39 15.61 0 0 0
2017-08-15 06:00:00 0 6786 15.67 15.62 15.77 0 0 0
2017-08-15 07:00:00 0 6932 16.18 15.77 16.81 0 0 0
2017-08-15 08:00:00 0 7372 18.48 16.97 20.3 0 0 0
2017-08-15 09:00:00 0 7342 21.57 20.82 22.62 0 0 0
2017-08-15 10:00:00 0 7362 23.46 21.98 24.62 0 0 0
2017-08-15 11:00:00 0 7342 25.57 24.14 26.77 0 0 0
2017-08-15 12:00:00 0 7342 26.71 26.21 27.41 0 0 0
2017-08-15 13:00:00 0 7332 27.99 26.85 29.61 2.49 0
2017-08-15 14:00:00 0 7362 27.96 27.45 28.62 0 0 0
2017-08-15 15:00:00 0 7352 28.97 27.7 30.18 0 0 0
2017-08-15 16:00:00 0 7332 29.66 29 30.48 0 0 0
2017-08-15 17:00:00 0 7324 28.89 28.26 30.62 0 0 0
2017-08-15 18:00:00 0 7324 28.52 28.12 29.31 0 0 0
2017-08-15 19:00:00 0 7040 26.76 25.43 27.78 0 0 0
2017-08-15 20:00:00 0 6914 23.84 22.07 25.1 0 0 0
2017-08-15 21:00:00 0 6844 21.49 20.79 22.37 0 0 0
2017-08-15 22:00:00 0 6834 19.75 18.98 20.51 0 0 0
2017-08-15 23:00:00 0 6826 18.46 17.97 18.89 0 0 0
2017-08-16 00:00:00 0 6816 18.22 17.71 18.58 0 0 0
2017-08-16 01:00:00 0 6816 17.43 16.98 17.99 0 0 0
2017-08-16 02:00:00 0 6806 16.31 15.93 16.88 0 0 0
2017-08-16 03:00:00 0 6796 15.72 14.99 16.09 0 0 0
2017-08-16 04:00:00 0 6786 15.21 14.96 15.57 0 0 0
2017-08-16 05:00:00 0 6786 15.03 14.7 15.49 0 0 0
2017-08-16 06:00:00 0 6816 14.4 13.72 14.93 0 0 0
2017-08-16 07:00:00 0 7254 15.89 14.59 16.98 0 0 0
2017-08-16 08:00:00 0 7352 18.25 17.08 20.39 0 0 0
2017-08-16 09:00:00 0 7362 22.09 20.54 23.63 0 0 0
2017-08-16 10:00:00 0 7362 24.73 23.22 26.29 0 0 0
2017-08-16 11:00:00 0 7342 26.71 26 28.11 0 0 0
2017-08-16 12:00:00 0 7332 28.12 26.24 29.1 0 0 0
2017-08-16 13:00:00 0 7332 30.09 29.53 31.04 0 0 0
2017-08-16 14:00:00 0 7332 31.29 30.43 32.45 0 0 0
2017-08-16 15:00:00 0 7332 31.87 31.31 32.88 0 0 0
2017-08-16 16:00:00 0 7324 32.21 31.59 33.27 0 0 0
2017-08-16 17:00:00 0 7332 28.71 25.52 32.25 0 0 0
2017-08-16 18:00:00 0 7070 23.71 22.94 25.79 0 0 0
2017-08-16 19:00:00 0 6942 21.51 21.02 22.42 0 0 0